MSC Annamaria — H3HN — position and weather

sailwx.info

Track history (hours):
 
Tides and Currents Weather Stations Pressure Air Temp Water Temp Dewpoint Dewpoint Depression Visibility Wind Speed Wind Dir Waves Ship Positions

MSC Annamaria

Last reported at 2014-Dec-13 21:32 UTC. Time now 2014-Dec-19 01:34 UTC.
Position N 34°09' E 032°43'.

Length 188 m; draft 8.4 m.

Type: Ship (hazmat cat B). MMSI: 353852000.

Date/timePositionNaut miles runAvg speedWind from/ knotsBaromVisibWave heightAir tempDewpointWater temp
2014-Dec-13 21:32N 34°09' E 032°43'1212.4
2014-Dec-13 20:33N 34°18' E 032°52'1312.8
2014-Dec-13 19:33N 34°28' E 033°02'1110.9
2014-Dec-13 18:34N 34°39' E 033°03'1 1.4
2014-Dec-13 17:33N 34°39' E 033°01'0 0.0
2014-Dec-13 16:32N 34°39' E 033°01'0 0.0
2014-Dec-13 15:31N 34°39' E 033°01'0 0.0
2014-Dec-13 14:33N 34°39' E 033°01'0 0.0
2014-Dec-13 13:32N 34°39' E 033°01'0 0.0
2014-Dec-13 12:32N 34°39' E 033°01'0 0.0
2014-Dec-13 11:33N 34°39' E 033°01'0 0.0
2014-Dec-13 10:33N 34°39' E 033°01'0 0.0
2014-Dec-13 09:31N 34°39' E 033°01'0 0.0
2014-Dec-13 08:31N 34°39' E 033°01'0 0.0
2014-Dec-13 07:32N 34°39' E 033°01'0 0.0
2014-Dec-13 06:33N 34°39' E 033°01'0 0.0
2014-Dec-13 05:27N 34°39' E 033°01'0 0.3
2014-Dec-13 04:34N 34°39' E 033°01'3 3.1
2014-Dec-13 03:33N 34°37' E 033°04'1 0.8
2014-Dec-13 02:33N 34°36' E 033°04'4 3.6
2014-Dec-13 01:33N 34°33' E 033°04'1212.1
2014-Dec-13 00:33N 34°33' E 032°49'1313.0
2014-Dec-12 23:33N 34°37' E 032°34'30712.3
2014-Dec-11 22:33N 36°07' E 026°34'1511.5
2014-Dec-11 21:17N 36°08' E 026°16'811.4
2014-Dec-11 20:33N 36°08' E 026°06'1111.2
2014-Dec-11 19:32N 36°09' E 025°51'1111.3
2014-Dec-11 18:33N 36°09' E 025°38'1211.8
2014-Dec-11 17:33N 36°09' E 025°23'1111.2
2014-Dec-11 16:33N 36°11' E 025°09'1211.5
2014-Dec-11 15:33N 36°17' E 024°57'1212.1
2014-Dec-11 14:33N 36°22' E 024°44'1312.8
2014-Dec-11 13:33N 36°28' E 024°30'1212.2
2014-Dec-11 12:33N 36°34' E 024°16'1211.9
2014-Dec-11 11:33N 36°45' E 024°09'1312.9
2014-Dec-11 10:33N 36°57' E 024°03'1312.7
2014-Dec-11 09:33N 37°09' E 023°58'1313.3
2014-Dec-11 08:33N 37°21' E 023°52'1513.3
2014-Dec-11 07:23N 37°35' E 023°45'1113.6
2014-Dec-11 06:33N 37°46' E 023°39'1111.2
2014-Dec-11 05:33N 37°57' E 023°36'1 0.5
2014-Dec-11 04:33N 37°57' E 023°36'0 0.0
2014-Dec-11 03:30N 37°57' E 023°36'0 0.0
2014-Dec-11 02:29N 37°57' E 023°36'0 0.0
2014-Dec-11 01:28N 37°57' E 023°36'0 0.0
2014-Dec-11 00:32N 37°57' E 023°36'0 0.0
2014-Dec-10 23:32N 37°57' E 023°36'0 0.0
2014-Dec-10 22:33N 37°57' E 023°36'0 0.0
2014-Dec-10 21:31N 37°57' E 023°36'0 0.0
2014-Dec-10 20:32N 37°57' E 023°36'0 0.0
2014-Dec-10 19:32N 37°57' E 023°36'0 0.0
2014-Dec-10 18:32N 37°57' E 023°36'0 0.0
2014-Dec-10 17:33N 37°57' E 023°36'0 0.0
2014-Dec-10 16:29N 37°57' E 023°36'0 0.0
2014-Dec-10 15:33N 37°57' E 023°36'0 0.0
2014-Dec-10 14:32N 37°57' E 023°36'0 0.0
2014-Dec-10 13:32N 37°57' E 023°36'0 0.0
2014-Dec-10 12:33N 37°57' E 023°36'0 0.0
2014-Dec-10 11:27N 37°57' E 023°36'0 0.0
2014-Dec-10 10:31N 37°57' E 023°36'0 0.0
2014-Dec-10 09:26N 37°57' E 023°36'0 0.0
2014-Dec-10 08:32N 37°57' E 023°36'0 0.0
2014-Dec-10 07:27N 37°57' E 023°36'0 0.0
2014-Dec-10 06:30N 37°57' E 023°36'2 2.4
2014-Dec-10 05:33N 37°55' E 023°37'2 2.1
2014-Dec-10 04:33N 37°53' E 023°37'1111.3
2014-Dec-10 03:33N 37°43' E 023°44'4 3.7
2014-Dec-10 02:33N 37°39' E 023°45'0 0.3
2014-Dec-10 01:33N 37°39' E 023°45'0 0.4
2014-Dec-10 00:33N 37°39' E 023°46'0 0.1
2014-Dec-09 23:33N 37°39' E 023°46'2 1.7
2014-Dec-09 22:33N 37°38' E 023°48'1212.3
2014-Dec-09 21:33N 37°36' E 024°03'1313.0
2014-Dec-09 20:31N 37°44' E 024°17'1313.6
2014-Dec-09 19:33N 37°53' E 024°30'110 3.3
2014-Dec-08 10:19N 39°40' E 023°59'1013.2
2014-Dec-08 09:33N 39°35' E 024°11'  
2014-Dec-05 09:33N 38°07' E 024°53'1412.4
2014-Dec-05 08:23N 37°58' E 024°38'1012.3
2014-Dec-05 07:33N 37°51' E 024°28'1812.1
2014-Dec-05 06:06N 37°39' E 024°12'611.7
2014-Dec-05 05:33N 37°37' E 024°05'1312.6
2014-Dec-05 04:33N 37°37' E 023°49'1111.6
2014-Dec-05 03:33N 37°45' E 023°39'1211.6
2014-Dec-05 02:33N 37°57' E 023°36'1 0.8
2014-Dec-05 01:32N 37°57' E 023°36'0 0.0
2014-Dec-05 00:32N 37°57' E 023°36'0 0.0
2014-Dec-04 23:30N 37°57' E 023°36'0 0.0
2014-Dec-04 22:28N 37°57' E 023°36'0 0.0
2014-Dec-04 21:27N 37°57' E 023°36'0 0.0
2014-Dec-04 20:31N 37°57' E 023°36'0 0.0
2014-Dec-04 19:31N 37°57' E 023°36'0 0.0
2014-Dec-04 18:31N 37°57' E 023°36'0 0.0
2014-Dec-04 17:27N 37°57' E 023°36'0 0.0
2014-Dec-04 16:31N 37°57' E 023°36'0 0.0
2014-Dec-04 15:33N 37°57' E 023°36'0 0.0
2014-Dec-04 14:31N 37°57' E 023°36'0 0.0
2014-Dec-04 13:33N 37°57' E 023°36'0 0.0
2014-Dec-04 12:32N 37°57' E 023°36'0 0.0
2014-Dec-04 11:31N 37°57' E 023°36'0 0.0
2014-Dec-04 10:33N 37°57' E 023°36'0 0.0
2014-Dec-04 09:33N 37°57' E 023°36'0 0.0
2014-Dec-04 08:28N 37°57' E 023°36'0 0.0
2014-Dec-04 07:33N 37°57' E 023°36'2 2.0
2014-Dec-04 06:33N 37°55' E 023°36'2 1.9
2014-Dec-04 05:33N 37°54' E 023°36'8 7.3
2014-Dec-04 04:32N 37°47' E 023°31'1 1.1
2014-Dec-04 03:33N 37°48' E 023°29'0 0.2
2014-Dec-04 02:33N 37°48' E 023°30'1 0.5
2014-Dec-04 01:33N 37°48' E 023°30'2 1.7
2014-Dec-04 00:33N 37°50' E 023°30'1 0.6
2014-Dec-03 23:33N 37°49' E 023°30'1 0.9
2014-Dec-03 22:33N 37°48' E 023°30'5 4.8
2014-Dec-03 21:34N 37°50' E 023°36'  
Track history (hours):
 
Tides and Currents Weather Stations Pressure Air Temp Water Temp Dewpoint Dewpoint Depression Visibility Wind Speed Wind Dir Waves Ship Positions

MSC Annamaria

Last reported at 2014-Dec-13 21:32 UTC. Time now 2014-Dec-19 01:34 UTC.
Position N 34°09' E 032°43'.

Length 188 m; draft 8.4 m.

Type: Ship (hazmat cat B). MMSI: 353852000.

Date/timePositionNaut miles runAvg speedWind from/ knotsBaromVisibWave heightAir tempDewpointWater temp
2014-Dec-13 21:32N 34°09' E 032°43'1212.4
2014-Dec-13 20:33N 34°18' E 032°52'1312.8
2014-Dec-13 19:33N 34°28' E 033°02'1110.9
2014-Dec-13 18:34N 34°39' E 033°03'1 1.4
2014-Dec-13 17:33N 34°39' E 033°01'0 0.0
2014-Dec-13 16:32N 34°39' E 033°01'0 0.0
2014-Dec-13 15:31N 34°39' E 033°01'0 0.0
2014-Dec-13 14:33N 34°39' E 033°01'0 0.0
2014-Dec-13 13:32N 34°39' E 033°01'0 0.0
2014-Dec-13 12:32N 34°39' E 033°01'0 0.0
2014-Dec-13 11:33N 34°39' E 033°01'0 0.0
2014-Dec-13 10:33N 34°39' E 033°01'0 0.0
2014-Dec-13 09:31N 34°39' E 033°01'0 0.0
2014-Dec-13 08:31N 34°39' E 033°01'0 0.0
2014-Dec-13 07:32N 34°39' E 033°01'0 0.0
2014-Dec-13 06:33N 34°39' E 033°01'0 0.0
2014-Dec-13 05:27N 34°39' E 033°01'0 0.3
2014-Dec-13 04:34N 34°39' E 033°01'3 3.1
2014-Dec-13 03:33N 34°37' E 033°04'1 0.8
2014-Dec-13 02:33N 34°36' E 033°04'4 3.6
2014-Dec-13 01:33N 34°33' E 033°04'1212.1
2014-Dec-13 00:33N 34°33' E 032°49'1313.0
2014-Dec-12 23:33N 34°37' E 032°34'30712.3
2014-Dec-11 22:33N 36°07' E 026°34'1511.5
2014-Dec-11 21:17N 36°08' E 026°16'811.4
2014-Dec-11 20:33N 36°08' E 026°06'1111.2
2014-Dec-11 19:32N 36°09' E 025°51'1111.3
2014-Dec-11 18:33N 36°09' E 025°38'1211.8
2014-Dec-11 17:33N 36°09' E 025°23'1111.2
2014-Dec-11 16:33N 36°11' E 025°09'1211.5
2014-Dec-11 15:33N 36°17' E 024°57'1212.1
2014-Dec-11 14:33N 36°22' E 024°44'1312.8
2014-Dec-11 13:33N 36°28' E 024°30'1212.2
2014-Dec-11 12:33N 36°34' E 024°16'1211.9
2014-Dec-11 11:33N 36°45' E 024°09'1312.9
2014-Dec-11 10:33N 36°57' E 024°03'1312.7
2014-Dec-11 09:33N 37°09' E 023°58'1313.3
2014-Dec-11 08:33N 37°21' E 023°52'1513.3
2014-Dec-11 07:23N 37°35' E 023°45'1113.6
2014-Dec-11 06:33N 37°46' E 023°39'1111.2
2014-Dec-11 05:33N 37°57' E 023°36'1 0.5
2014-Dec-11 04:33N 37°57' E 023°36'0 0.0
2014-Dec-11 03:30N 37°57' E 023°36'0 0.0
2014-Dec-11 02:29N 37°57' E 023°36'0 0.0
2014-Dec-11 01:28N 37°57' E 023°36'0 0.0
2014-Dec-11 00:32N 37°57' E 023°36'0 0.0
2014-Dec-10 23:32N 37°57' E 023°36'0 0.0
2014-Dec-10 22:33N 37°57' E 023°36'0 0.0
2014-Dec-10 21:31N 37°57' E 023°36'0 0.0
2014-Dec-10 20:32N 37°57' E 023°36'0 0.0
2014-Dec-10 19:32N 37°57' E 023°36'0 0.0
2014-Dec-10 18:32N 37°57' E 023°36'0 0.0
2014-Dec-10 17:33N 37°57' E 023°36'0 0.0
2014-Dec-10 16:29N 37°57' E 023°36'0 0.0
2014-Dec-10 15:33N 37°57' E 023°36'0 0.0
2014-Dec-10 14:32N 37°57' E 023°36'0 0.0
2014-Dec-10 13:32N 37°57' E 023°36'0 0.0
2014-Dec-10 12:33N 37°57' E 023°36'0 0.0
2014-Dec-10 11:27N 37°57' E 023°36'0 0.0
2014-Dec-10 10:31N 37°57' E 023°36'0 0.0
2014-Dec-10 09:26N 37°57' E 023°36'0 0.0
2014-Dec-10 08:32N 37°57' E 023°36'0 0.0
2014-Dec-10 07:27N 37°57' E 023°36'0 0.0
2014-Dec-10 06:30N 37°57' E 023°36'2 2.4
2014-Dec-10 05:33N 37°55' E 023°37'2 2.1
2014-Dec-10 04:33N 37°53' E 023°37'1111.3
2014-Dec-10 03:33N 37°43' E 023°44'4 3.7
2014-Dec-10 02:33N 37°39' E 023°45'0 0.3
2014-Dec-10 01:33N 37°39' E 023°45'0 0.4
2014-Dec-10 00:33N 37°39' E 023°46'0 0.1
2014-Dec-09 23:33N 37°39' E 023°46'2 1.7
2014-Dec-09 22:33N 37°38' E 023°48'1212.3
2014-Dec-09 21:33N 37°36' E 024°03'1313.0
2014-Dec-09 20:31N 37°44' E 024°17'1313.6
2014-Dec-09 19:33N 37°53' E 024°30'110 3.3
2014-Dec-08 10:19N 39°40' E 023°59'1013.2
2014-Dec-08 09:33N 39°35' E 024°11'  
2014-Dec-05 09:33N 38°07' E 024°53'1412.4
2014-Dec-05 08:23N 37°58' E 024°38'1012.3
2014-Dec-05 07:33N 37°51' E 024°28'1812.1
2014-Dec-05 06:06N 37°39' E 024°12'611.7
2014-Dec-05 05:33N 37°37' E 024°05'1312.6
2014-Dec-05 04:33N 37°37' E 023°49'1111.6
2014-Dec-05 03:33N 37°45' E 023°39'1211.6
2014-Dec-05 02:33N 37°57' E 023°36'1 0.8
2014-Dec-05 01:32N 37°57' E 023°36'0 0.0
2014-Dec-05 00:32N 37°57' E 023°36'0 0.0
2014-Dec-04 23:30N 37°57' E 023°36'0 0.0
2014-Dec-04 22:28N 37°57' E 023°36'0 0.0
2014-Dec-04 21:27N 37°57' E 023°36'0 0.0
2014-Dec-04 20:31N 37°57' E 023°36'0 0.0
2014-Dec-04 19:31N 37°57' E 023°36'0 0.0
2014-Dec-04 18:31N 37°57' E 023°36'0 0.0
2014-Dec-04 17:27N 37°57' E 023°36'0 0.0
2014-Dec-04 16:31N 37°57' E 023°36'0 0.0
2014-Dec-04 15:33N 37°57' E 023°36'0 0.0
2014-Dec-04 14:31N 37°57' E 023°36'0 0.0
2014-Dec-04 13:33N 37°57' E 023°36'0 0.0
2014-Dec-04 12:32N 37°57' E 023°36'0 0.0
2014-Dec-04 11:31N 37°57' E 023°36'0 0.0
2014-Dec-04 10:33N 37°57' E 023°36'0 0.0
2014-Dec-04 09:33N 37°57' E 023°36'0 0.0
2014-Dec-04 08:28N 37°57' E 023°36'0 0.0
2014-Dec-04 07:33N 37°57' E 023°36'2 2.0
2014-Dec-04 06:33N 37°55' E 023°36'2 1.9
2014-Dec-04 05:33N 37°54' E 023°36'8 7.3
2014-Dec-04 04:32N 37°47' E 023°31'1 1.1
2014-Dec-04 03:33N 37°48' E 023°29'0 0.2
2014-Dec-04 02:33N 37°48' E 023°30'1 0.5
2014-Dec-04 01:33N 37°48' E 023°30'2 1.7
2014-Dec-04 00:33N 37°50' E 023°30'1 0.6
2014-Dec-03 23:33N 37°49' E 023°30'1 0.9
2014-Dec-03 22:33N 37°48' E 023°30'5 4.8
2014-Dec-03 21:34N 37°50' E 023°36'  

Dump ship's entire track history